Date,TemperatureHighF,TemperatureAvgF,TemperatureLowF,DewpointHighF,DewpointAvgF,DewpointLowF,HumidityHigh,HumidityAvg,HumidityLow,PressureMaxIn,PressureMinIn,WindSpeedMaxMPH,WindSpeedAvgMPH,GustSpeedMaxMPH,PrecipitationSumIn
2013-1-1,62,47,34,48,34,26,77,62,48,30.26,30.07,5,2,0,0.00
2013-1-2,69,57,48,44,34,24,47,42,37,30.16,30.01,8,3,0,0.00
2013-1-3,71,58,47,42,31,22,39,36,32,30.18,30.06,13,3,0,0.00
2013-1-4,70,54,40,39,26,15,45,35,30,30.25,30.12,7,2,0,0.00
2013-1-5,65,48,34,44,29,16,59,49,44,30.32,30.15,6,1,0,0.00
2013-1-6,58,47,39,48,37,29,74,68,59,30.22,29.99,9,2,0,0.02
2013-1-7,66,46,33,52,36,27,79,69,58,30.15,29.99,6,2,0,0.00
2013-1-8,80,55,40,60,42,30,69,61,49,30.11,30.01,7,2,0,0.00
2013-1-9,65,52,42,54,43,33,79,72,66,30.13,29.97,7,2,0,0.00
2013-1-10,61,50,38,50,40,25,82,69,55,30.12,29.92,7,2,0,0.00
2013-1-11,57,41,29,38,27,18,78,58,45,30.23,30.02,7,2,0,0.00
2013-1-12,59,41,30,38,28,22,75,61,40,30.18,30.05,9,2,0,0.00
2013-1-13,57,44,33,34,28,21,71,55,39,30.17,30.03,10,2,0,0.00
2013-1-14,57,45,36,25,17,12,45,33,27,30.37,30.18,10,3,0,0.00
2013-1-15,67,51,35,34,25,11,62,36,29,30.47,30.32,7,2,0,0.00
2013-1-16,75,62,51,40,31,25,37,31,26,30.37,30.12,8,3,0,0.00
2013-1-17,78,67,59,35,28,20,26,23,20,30.20,30.06,7,3,0,0.00
2013-1-18,79,68,58,34,26,19,22,21,19,30.16,30.02,8,3,0,0.00
2013-1-19,81,67,59,34,24,17,21,19,17,30.18,30.04,10,2,0,0.00
2013-1-20,81,70,57,33,24,15,20,18,16,30.13,29.97,9,3,0,0.00
2013-1-21,82,69,57,32,22,15,20,17,15,30.08,29.96,8,3,0,0.00
2013-1-22,84,63,51,35,24,14,40,24,16,30.09,29.99,7,2,0,0.00
2013-1-23,78,61,52,46,35,26,80,39,28,30.12,29.99,3,1,0,0.12
2013-1-24,62,56,51,58,53,46,93,88,81,30.19,30.09,4,1,0,1.40
2013-1-25,61,60,56,55,50,47,93,69,60,30.14,29.93,6,2,0,0.49
2013-1-26,132,66,47,100,55,32,97,76,56,29.97,29.85,7,2,0,0.25
2013-1-27,-40,-40,-40,-60,-95,-105,30,4,30,29.99,29.87,0,0,0,0.03